Time;durP1;ratioP1;P1;durP2;ratioP2;P2;SDS_P1;SDS_P2;PMS_P1;PMS_P2;Temp;Humidity;BMP_temperature;BMP_pressure;BME280_temperature;BME280_humidity;BME280_pressure;Samples;Min_cycle;Max_cycle;Signal;HPM_P1;HPM_P2
2022/12/21 00:01:48;;;;;;;11.90;8.47;;;10.00;99.90;;;;;;5111543;28;20214;-58
2022/12/21 00:04:15;;;;;;;10.77;8.33;;;10.00;99.90;;;;;;5112078;28;20246;-53
2022/12/21 00:06:42;;;;;;;12.57;9.57;;;10.00;99.90;;;;;;5111684;28;20257;-58
2022/12/21 00:09:12;;;;;;;14.73;9.80;;;10.00;99.90;;;;;;5112001;28;20227;-59
2022/12/21 00:11:38;;;;;;;14.90;9.50;;;10.10;99.90;;;;;;5111891;28;20212;-59
2022/12/21 00:14:06;;;;;;;12.93;9.00;;;10.00;99.90;;;;;;5111878;28;20685;-58
2022/12/21 00:16:36;;;;;;;14.97;9.53;;;10.10;99.90;;;;;;5111647;28;20211;-56
2022/12/21 00:19:05;;;;;;;12.63;9.40;;;10.10;99.90;;;;;;5111964;28;20219;-57
2022/12/21 00:21:33;;;;;;;13.70;9.77;;;10.10;99.90;;;;;;5113045;28;20204;-53
2022/12/21 00:24:00;;;;;;;14.43;11.23;;;10.10;99.90;;;;;;5111780;28;20245;-55
2022/12/21 00:26:29;;;;;;;16.27;10.80;;;10.10;99.90;;;;;;5111444;28;20222;-59
2022/12/21 00:28:57;;;;;;;16.30;11.03;;;10.10;99.90;;;;;;5111941;28;20216;-51
2022/12/21 00:31:26;;;;;;;15.07;10.53;;;10.10;99.90;;;;;;5111778;28;20241;-58
2022/12/21 00:33:54;;;;;;;15.83;11.60;;;10.10;99.90;;;;;;5111875;28;20203;-52
2022/12/21 00:36:23;;;;;;;16.67;11.73;;;10.10;99.90;;;;;;5111558;28;20268;-55
2022/12/21 00:38:50;;;;;;;15.27;11.33;;;10.10;99.90;;;;;;5112173;28;20237;-54
2022/12/21 00:41:19;;;;;;;17.73;11.77;;;10.00;99.90;;;;;;5115105;28;20228;-58
2022/12/21 00:43:47;;;;;;;17.13;11.83;;;10.00;99.90;;;;;;5115279;28;20253;-55
2022/12/21 00:46:17;;;;;;;19.03;12.57;;;10.00;99.90;;;;;;5114917;28;20223;-56
2022/12/21 00:48:44;;;;;;;18.27;12.90;;;10.00;99.90;;;;;;5115147;28;20287;-53
2022/12/21 00:51:13;;;;;;;16.87;11.57;;;10.00;99.90;;;;;;5115195;28;20293;-58
2022/12/21 00:53:42;;;;;;;19.93;13.70;;;10.00;99.90;;;;;;5114950;28;20208;-53
2022/12/21 00:56:09;;;;;;;20.67;12.93;;;10.00;99.90;;;;;;5114829;28;20192;-54
2022/12/21 00:58:37;;;;;;;24.10;13.80;;;10.00;99.90;;;;;;5114577;28;20268;-52
2022/12/21 01:01:06;;;;;;;20.70;13.23;;;9.90;99.90;;;;;;5114953;28;20207;-52
2022/12/21 01:03:33;;;;;;;20.57;13.20;;;10.00;99.90;;;;;;5114821;28;20237;-54
2022/12/21 01:06:00;;;;;;;21.60;13.30;;;10.00;99.90;;;;;;5114339;28;20276;-59
2022/12/21 01:08:27;;;;;;;20.93;13.37;;;10.00;99.90;;;;;;5115115;28;20314;-56
2022/12/21 01:10:58;;;;;;;20.67;13.57;;;10.00;99.90;;;;;;5114747;28;20210;-59
2022/12/21 01:13:25;;;;;;;23.27;13.23;;;10.00;99.90;;;;;;5114760;28;20578;-58
2022/12/21 01:15:52;;;;;;;18.43;12.37;;;10.00;99.90;;;;;;5114354;28;20256;-59
2022/12/21 01:18:19;;;;;;;22.03;13.20;;;10.00;99.90;;;;;;5114635;28;20234;-57
2022/12/21 01:20:48;;;;;;;22.27;13.20;;;10.00;99.90;;;;;;5114428;28;20265;-58
2022/12/21 01:23:15;;;;;;;20.60;13.03;;;10.00;99.90;;;;;;5114722;28;20211;-57
2022/12/21 01:25:42;;;;;;;22.67;13.33;;;9.90;99.90;;;;;;5114325;28;20310;-58
2022/12/21 01:28:11;;;;;;;23.57;13.80;;;9.90;99.90;;;;;;5114093;28;20227;-58
2022/12/21 01:30:38;;;;;;;22.37;13.73;;;10.00;99.90;;;;;;5114322;28;20237;-58
2022/12/21 01:33:05;;;;;;;23.23;13.37;;;10.00;99.90;;;;;;5114276;28;20216;-58
2022/12/21 01:35:32;;;;;;;24.33;14.00;;;9.90;99.90;;;;;;5114583;28;20211;-58
2022/12/21 01:37:58;;;;;;;22.70;14.30;;;9.90;99.90;;;;;;5113989;28;20227;-58
2022/12/21 01:40:30;;;;;;;20.77;13.60;;;9.90;99.90;;;;;;5114370;28;20207;-60
2022/12/21 01:42:56;;;;;;;25.50;13.83;;;9.90;99.90;;;;;;5114001;28;20202;-59
2022/12/21 01:45:27;;;;;;;28.37;15.03;;;9.90;99.90;;;;;;5113928;28;20223;-58
2022/12/21 01:47:57;;;;;;;24.60;14.97;;;9.90;99.90;;;;;;5113402;28;20224;-58
2022/12/21 01:50:30;;;;;;;31.97;14.87;;;10.00;99.90;;;;;;5114146;28;20200;-58
2022/12/21 01:52:59;;;;;;;28.03;15.27;;;9.90;99.90;;;;;;5113910;28;20213;-60
2022/12/21 01:55:26;;;;;;;27.27;14.43;;;9.90;99.90;;;;;;5113877;28;20602;-59
2022/12/21 01:57:54;;;;;;;30.23;14.93;;;9.90;99.90;;;;;;5113501;27;20220;-59
2022/12/21 02:00:21;;;;;;;26.07;15.50;;;9.90;99.90;;;;;;5113691;28;20223;-59
2022/12/21 02:02:52;;;;;;;29.27;16.10;;;9.90;99.90;;;;;;5113595;28;20727;-59
2022/12/21 02:05:27;;;;;;;32.10;15.00;;;9.90;99.90;;;;;;5113698;28;20724;-59
2022/12/21 02:07:55;;;;;;;30.03;15.73;;;9.80;99.90;;;;;;5113233;28;20719;-57
2022/12/21 02:10:22;;;;;;;29.43;15.77;;;9.80;99.90;;;;;;5113702;28;20207;-58
2022/12/21 02:12:51;;;;;;;31.17;15.23;;;9.80;99.90;;;;;;5113408;28;20734;-58
2022/12/21 02:15:17;;;;;;;36.07;15.67;;;9.80;99.90;;;;;;5113383;28;20211;-57
2022/12/21 02:17:56;;;;;;;32.27;15.67;;;9.80;99.90;;;;;;5113437;28;20698;-58
2022/12/21 02:21:11;;;;;;;26.77;15.20;;;9.80;99.90;;;;;;5114237;28;20210;-58
2022/12/21 02:24:10;;;;;;;30.20;15.23;;;9.80;99.90;;;;;;5050279;28;20208;-59
2022/12/21 02:27:10;;;;;;;32.43;17.23;;;9.80;99.90;;;;;;5020634;28;20676;-59
2022/12/21 02:30:03;;;;;;;34.63;15.77;;;9.80;99.90;;;;;;5085960;28;20272;-59
2022/12/21 02:32:45;;;;;;;35.90;16.20;;;9.80;99.90;;;;;;5091246;28;20284;-59
2022/12/21 02:35:20;;;;;;;32.13;15.90;;;9.80;99.90;;;;;;5092444;28;20552;-59
2022/12/21 02:37:56;;;;;;;29.00;14.97;;;9.80;99.90;;;;;;5092335;28;20255;-57
2022/12/21 02:40:31;;;;;;;33.57;15.93;;;9.80;99.90;;;;;;5092783;28;20640;-57
2022/12/21 02:45:56;;;;;;;28.13;15.10;;;9.80;99.90;;;;;;5092426;28;20764;-57
2022/12/21 02:48:31;;;;;;;24.23;12.57;;;9.80;99.90;;;;;;5092328;28;20277;-58
2022/12/21 02:51:01;;;;;;;21.37;12.07;;;9.80;99.90;;;;;;5092357;28;20207;-55
2022/12/21 02:53:32;;;;;;;23.23;11.73;;;9.70;99.90;;;;;;5092509;28;20208;-59
2022/12/21 02:55:59;;;;;;;22.87;12.27;;;9.80;99.90;;;;;;5102280;28;20605;-54
2022/12/21 02:58:26;;;;;;;22.87;12.53;;;9.80;99.90;;;;;;5112685;28;20865;-56
2022/12/21 03:01:13;;;;;;;23.13;12.47;;;9.80;99.90;;;;;;5112464;28;20252;-57
2022/12/21 03:04:06;;;;;;;30.20;13.13;;;9.70;99.90;;;;;;5112413;28;20669;-58
2022/12/21 03:06:49;;;;;;;24.33;12.43;;;9.70;99.90;;;;;;5112363;28;20231;-59
2022/12/21 03:09:27;;;;;;;25.13;13.27;;;9.80;99.90;;;;;;5112595;28;20210;-57
2022/12/21 03:11:59;;;;;;;26.23;13.00;;;9.70;99.90;;;;;;5112706;28;20264;-58
2022/12/21 03:14:38;;;;;;;23.77;13.00;;;9.60;99.90;;;;;;5112328;28;20618;-58
2022/12/21 03:17:12;;;;;;;26.10;11.93;;;9.70;99.90;;;;;;5112188;28;20272;-58
2022/12/21 03:19:46;;;;;;;29.33;13.83;;;9.60;99.90;;;;;;5112349;28;20682;-58
2022/12/21 03:22:22;;;;;;;24.53;12.57;;;9.60;99.90;;;;;;5112585;28;20215;-57
2022/12/21 03:24:57;;;;;;;25.63;12.47;;;9.70;99.90;;;;;;5112604;28;20203;-59
2022/12/21 03:27:29;;;;;;;24.27;12.07;;;9.70;99.90;;;;;;5112015;28;20301;-59
2022/12/21 03:30:01;;;;;;;27.07;13.07;;;9.70;99.90;;;;;;5111990;28;20203;-59
2022/12/21 03:32:33;;;;;;;27.57;12.70;;;9.70;99.90;;;;;;5112433;28;20203;-58
2022/12/21 03:35:04;;;;;;;27.30;12.70;;;9.70;99.90;;;;;;5112269;28;20254;-59
2022/12/21 03:37:36;;;;;;;30.90;13.63;;;9.70;99.90;;;;;;5111950;28;20770;-58
2022/12/21 03:40:10;;;;;;;25.80;11.70;;;9.70;99.90;;;;;;5112154;28;20620;-60
2022/12/21 03:42:41;;;;;;;31.97;12.63;;;9.70;99.90;;;;;;5112137;28;20702;-58
2022/12/21 03:45:11;;;;;;;27.67;12.50;;;9.70;99.90;;;;;;5112117;28;20199;-58
2022/12/21 03:47:43;;;;;;;29.27;12.87;;;9.70;99.90;;;;;;5112083;28;20292;-56
2022/12/21 03:50:15;;;;;;;29.97;12.10;;;9.70;99.90;;;;;;5112077;28;20203;-57
2022/12/21 03:52:48;;;;;;;26.93;11.73;;;9.60;99.90;;;;;;5111933;28;20228;-59
2022/12/21 03:55:20;;;;;;;28.23;13.40;;;9.60;99.90;;;;;;5111720;28;20292;-58
2022/12/21 03:57:48;;;;;;;26.47;12.50;;;9.70;99.90;;;;;;5111808;28;20227;-56
2022/12/21 04:00:16;;;;;;;25.67;11.80;;;9.70;99.90;;;;;;5112103;28;20638;-58
2022/12/21 04:02:50;;;;;;;28.23;13.27;;;9.50;99.90;;;;;;5111680;28;20678;-57
2022/12/21 04:05:22;;;;;;;32.90;13.07;;;9.50;99.90;;;;;;5104087;28;20612;-58
2022/12/21 04:07:50;;;;;;;30.13;12.87;;;9.60;99.90;;;;;;5111925;28;20227;-59
2022/12/21 04:10:20;;;;;;;25.17;12.43;;;9.60;99.90;;;;;;5111911;28;20208;-58
2022/12/21 04:12:47;;;;;;;35.50;14.20;;;9.50;99.90;;;;;;5111877;28;20265;-59
2022/12/21 04:15:16;;;;;;;38.03;13.70;;;9.50;99.90;;;;;;5114797;28;20745;-58
2022/12/21 04:17:45;;;;;;;32.93;13.13;;;9.50;99.90;;;;;;5115454;28;20648;-53
2022/12/21 04:20:14;;;;;;;35.87;13.40;;;9.50;99.90;;;;;;5115977;28;20255;-58
2022/12/21 04:28:21;;;;;;;51.60;14.10;;;9.50;99.90;;;;;;5107053;28;20299;-52
2022/12/21 04:30:48;;;;;;;45.27;13.47;;;9.40;99.90;;;;;;5115743;28;20206;-53
2022/12/21 04:33:17;;;;;;;47.30;13.93;;;9.40;99.90;;;;;;5115679;28;20207;-52
2022/12/21 04:38:28;;;;;;;58.33;15.33;;;9.40;99.90;;;;;;5115301;28;20302;-57
2022/12/21 04:40:55;;;;;;;47.93;14.77;;;9.30;99.90;;;;;;5115562;28;20723;-59
2022/12/21 04:43:22;;;;;;;48.50;13.93;;;9.40;99.90;;;;;;5115312;28;20257;-56
2022/12/21 04:45:50;;;;;;;64.60;15.10;;;9.30;99.90;;;;;;5115399;28;20249;-56
2022/12/21 04:48:17;;;;;;;57.47;14.50;;;9.40;99.90;;;;;;5115096;28;20223;-52
2022/12/21 04:50:44;;;;;;;63.90;15.03;;;9.40;99.90;;;;;;5115041;28;20217;-52
2022/12/21 04:53:10;;;;;;;71.77;15.60;;;9.40;99.90;;;;;;5115042;28;20200;-55
2022/12/21 04:55:38;;;;;;;57.90;14.63;;;9.30;99.90;;;;;;5115108;28;20248;-55
2022/12/21 04:58:05;;;;;;;47.83;14.33;;;9.30;99.90;;;;;;5115321;28;20240;-55
2022/12/21 05:00:32;;;;;;;58.00;14.83;;;9.30;99.90;;;;;;5115123;27;20211;-53
2022/12/21 05:02:58;;;;;;;50.77;13.93;;;9.40;99.90;;;;;;5114920;28;20207;-57
2022/12/21 05:05:25;;;;;;;89.73;15.43;;;9.30;99.90;;;;;;5114519;28;20208;-56
2022/12/21 05:07:52;;;;;;;67.30;15.87;;;9.40;99.90;;;;;;5114464;28;20276;-54
2022/12/21 05:10:19;;;;;;;62.40;14.93;;;9.40;99.90;;;;;;5114884;28;20207;-58
2022/12/21 05:12:47;;;;;;;49.67;12.93;;;9.30;99.90;;;;;;5114822;28;20207;-58
2022/12/21 05:15:16;;;;;;;52.17;14.33;;;9.40;99.90;;;;;;5114599;28;20218;-58
2022/12/21 05:17:43;;;;;;;56.17;14.47;;;9.30;99.90;;;;;;5114276;28;20269;-58
2022/12/21 05:20:10;;;;;;;48.30;13.93;;;9.30;99.90;;;;;;5114713;28;20218;-59
2022/12/21 05:22:36;;;;;;;59.23;14.97;;;9.40;99.90;;;;;;5114426;28;20211;-60
2022/12/21 05:25:03;;;;;;;55.73;15.10;;;9.30;99.90;;;;;;5113910;28;20624;-55
2022/12/21 05:27:30;;;;;;;56.73;14.60;;;9.30;99.90;;;;;;5114095;28;20215;-56
2022/12/21 05:29:58;;;;;;;59.43;14.30;;;9.30;99.90;;;;;;5114492;28;20240;-58
2022/12/21 05:32:25;;;;;;;46.10;13.77;;;9.30;99.90;;;;;;5114214;28;20210;-58
2022/12/21 05:34:51;;;;;;;39.97;13.43;;;9.20;99.90;;;;;;5114278;28;20230;-56
2022/12/21 05:37:18;;;;;;;36.43;12.30;;;9.20;99.90;;;;;;5113944;28;20292;-60
2022/12/21 05:39:45;;;;;;;32.60;11.87;;;9.20;99.90;;;;;;5114436;28;20611;-57
2022/12/21 05:42:11;;;;;;;36.77;11.40;;;9.20;99.90;;;;;;5114414;28;20236;-57
2022/12/21 05:44:38;;;;;;;34.83;11.33;;;9.20;99.90;;;;;;5113978;28;20627;-59
2022/12/21 05:47:06;;;;;;;36.53;12.50;;;9.20;99.90;;;;;;5113776;28;20567;-54
2022/12/21 05:49:32;;;;;;;34.70;12.27;;;9.20;99.90;;;;;;5113956;28;20257;-58
2022/12/21 05:51:59;;;;;;;35.37;11.87;;;9.20;99.90;;;;;;5114313;28;20256;-57
2022/12/21 05:54:26;;;;;;;30.57;12.00;;;9.20;99.90;;;;;;5114087;28;20207;-57
2022/12/21 05:56:53;;;;;;;32.93;11.47;;;9.20;99.90;;;;;;5113403;28;20203;-57
2022/12/21 05:59:19;;;;;;;31.17;11.13;;;9.20;99.90;;;;;;5113816;28;20248;-59
2022/12/21 06:01:47;;;;;;;36.53;11.90;;;9.10;99.90;;;;;;5113965;28;20686;-60
2022/12/21 06:04:15;;;;;;;29.77;11.37;;;9.10;99.90;;;;;;5113619;28;20206;-60
2022/12/21 06:06:41;;;;;;;30.80;11.67;;;9.10;99.90;;;;;;5113558;28;20285;-59
2022/12/21 06:09:08;;;;;;;29.17;11.27;;;9.20;99.90;;;;;;5113523;28;20224;-58
2022/12/21 06:11:35;;;;;;;29.53;10.23;;;9.10;99.90;;;;;;5113665;28;20226;-58
2022/12/21 06:14:01;;;;;;;32.47;12.47;;;9.10;99.90;;;;;;5113566;28;20273;-58
2022/12/21 06:16:28;;;;;;;29.00;11.63;;;9.10;99.90;;;;;;5113904;28;20203;-59
2022/12/21 06:18:55;;;;;;;29.97;11.30;;;9.10;99.90;;;;;;5114114;28;20288;-59
2022/12/21 06:21:24;;;;;;;33.93;11.90;;;9.10;99.90;;;;;;5113693;28;20565;-58
2022/12/21 06:23:50;;;;;;;28.40;11.87;;;9.10;99.90;;;;;;5113517;28;20571;-58
2022/12/21 06:26:20;;;;;;;32.03;11.63;;;9.10;99.90;;;;;;5112840;28;20272;-58
2022/12/21 06:28:51;;;;;;;26.27;10.53;;;9.20;99.90;;;;;;5113399;28;20224;-56
2022/12/21 06:31:18;;;;;;;28.40;10.93;;;9.20;99.90;;;;;;5113139;28;20208;-58
2022/12/21 06:33:45;;;;;;;26.53;10.90;;;9.20;99.90;;;;;;5113389;28;20209;-59
2022/12/21 06:36:12;;;;;;;28.43;11.13;;;9.20;99.90;;;;;;5112505;28;20598;-60
2022/12/21 06:38:40;;;;;;;23.37;10.43;;;9.20;99.90;;;;;;5112736;28;20223;-58
2022/12/21 06:41:09;;;;;;;27.53;11.27;;;9.20;99.90;;;;;;5113060;28;20206;-58
2022/12/21 06:43:37;;;;;;;29.00;11.63;;;9.30;99.90;;;;;;5112842;28;20212;-59
2022/12/21 06:46:06;;;;;;;26.97;10.83;;;9.20;99.90;;;;;;5112406;28;20669;-58
2022/12/21 06:48:34;;;;;;;30.63;12.03;;;9.20;99.90;;;;;;5112888;28;20287;-60
2022/12/21 06:51:03;;;;;;;22.90;10.80;;;9.30;99.90;;;;;;5112869;28;20207;-59
2022/12/21 06:53:32;;;;;;;29.17;11.13;;;9.40;99.90;;;;;;5112780;28;20259;-60
2022/12/21 06:56:01;;;;;;;28.90;11.33;;;9.40;99.90;;;;;;5112541;28;20198;-59
2022/12/21 06:58:28;;;;;;;31.43;12.67;;;9.50;99.90;;;;;;5112641;28;20286;-59
2022/12/21 07:00:55;;;;;;;28.40;11.23;;;9.50;99.90;;;;;;5113202;28;20207;-59
2022/12/21 07:03:23;;;;;;;25.90;11.43;;;9.50;99.90;;;;;;5113175;28;20207;-58
2022/12/21 07:05:50;;;;;;;25.63;11.60;;;9.50;99.90;;;;;;5112746;28;20239;-57
2022/12/21 07:08:17;;;;;;;28.90;12.03;;;9.50;99.90;;;;;;5112664;28;20314;-55
2022/12/21 07:10:43;;;;;;;27.13;11.63;;;9.50;99.90;;;;;;5112655;28;20211;-57
2022/12/21 07:13:11;;;;;;;25.20;10.97;;;9.50;99.90;;;;;;5112842;28;20290;-58
2022/12/21 07:15:38;;;;;;;31.47;11.77;;;9.60;99.90;;;;;;5112210;28;20219;-58
2022/12/21 07:18:05;;;;;;;24.20;11.90;;;9.40;99.90;;;;;;5112118;28;20254;-58
2022/12/21 07:20:32;;;;;;;24.23;11.67;;;9.30;99.90;;;;;;5112178;28;20269;-60
2022/12/21 07:22:58;;;;;;;26.80;12.30;;;9.30;99.90;;;;;;5112667;28;20204;-59
2022/12/21 07:25:25;;;;;;;24.10;11.60;;;9.40;99.90;;;;;;5112064;28;20712;-57
2022/12/21 07:27:52;;;;;;;32.37;12.63;;;9.40;99.90;;;;;;5112085;28;20625;-57
2022/12/21 07:30:20;;;;;;;25.97;11.90;;;9.50;99.90;;;;;;5112313;28;20200;-60
2022/12/21 07:32:46;;;;;;;27.87;12.50;;;9.60;99.90;;;;;;5112279;28;20210;-59
2022/12/21 07:35:13;;;;;;;26.07;12.73;;;9.60;99.90;;;;;;5112190;28;20255;-59
2022/12/21 07:37:40;;;;;;;31.90;12.90;;;9.60;99.90;;;;;;5111914;28;20276;-59
2022/12/21 07:40:08;;;;;;;27.83;12.63;;;9.40;99.90;;;;;;5112425;28;20203;-55
2022/12/21 07:42:34;;;;;;;31.67;13.17;;;9.40;99.90;;;;;;5112309;28;20564;-58
2022/12/21 07:45:01;;;;;;;24.83;11.90;;;9.50;99.90;;;;;;5111828;28;20673;-57
2022/12/21 07:47:29;;;;;;;28.10;12.30;;;9.50;99.90;;;;;;5111960;28;20254;-57
2022/12/21 07:49:56;;;;;;;28.93;12.83;;;9.60;99.90;;;;;;5116394;28;20199;-57
2022/12/21 07:52:23;;;;;;;31.60;12.93;;;9.60;99.90;;;;;;5116073;28;20707;-58
2022/12/21 07:54:49;;;;;;;29.70;13.13;;;9.60;99.90;;;;;;5116471;28;20204;-58
2022/12/21 07:57:16;;;;;;;33.37;12.77;;;9.60;99.90;;;;;;5115833;28;20230;-58
2022/12/21 07:59:43;;;;;;;29.07;11.97;;;9.60;99.90;;;;;;5105046;28;20211;-63
2022/12/21 08:02:10;;;;;;;26.73;12.50;;;9.70;99.90;;;;;;5114034;28;20662;-57
2022/12/21 08:04:38;;;;;;;25.73;11.77;;;9.70;99.90;;;;;;5115295;27;20204;-54
2022/12/21 08:07:05;;;;;;;31.17;12.33;;;9.70;99.90;;;;;;5114480;28;20223;-56
2022/12/21 08:09:32;;;;;;;46.40;11.90;;;9.70;99.90;;;;;;5115689;28;20204;-56
2022/12/21 08:11:59;;;;;;;73.13;11.23;;;9.70;99.90;;;;;;5115640;28;20211;-57
2022/12/21 08:14:26;;;;;;;41.33;10.60;;;9.70;99.90;;;;;;5115467;28;20268;-58
2022/12/21 08:16:52;;;;;;;31.13;10.50;;;9.60;99.90;;;;;;5115205;28;20202;-57
2022/12/21 08:19:19;;;;;;;22.33;9.37;;;9.70;99.90;;;;;;5115183;28;20208;-55
2022/12/21 08:21:47;;;;;;;23.17;9.90;;;9.70;99.90;;;;;;5114983;28;20214;-56
2022/12/21 08:24:14;;;;;;;21.73;9.70;;;9.70;99.90;;;;;;5115403;28;20215;-56
2022/12/21 08:26:41;;;;;;;21.23;9.90;;;9.70;99.90;;;;;;5115077;28;20240;-57
2022/12/21 08:29:08;;;;;;;21.13;10.10;;;9.70;99.90;;;;;;5114734;28;20231;-57
2022/12/21 08:31:36;;;;;;;21.83;10.20;;;9.70;99.90;;;;;;5114980;28;20210;-54
2022/12/21 08:34:03;;;;;;;20.63;10.07;;;9.70;99.90;;;;;;5114874;28;20210;-49
2022/12/21 08:36:31;;;;;;;22.43;9.90;;;9.70;99.90;;;;;;5114831;28;20207;-50
2022/12/21 08:39:00;;;;;;;18.73;9.77;;;9.60;99.90;;;;;;5112055;28;20276;-49
2022/12/21 08:41:26;;;;;;;22.47;10.50;;;9.60;99.90;;;;;;5114452;28;20231;-55
2022/12/21 08:43:53;;;;;;;39.33;12.47;;;9.60;99.90;;;;;;5114746;28;20222;-54
2022/12/21 08:46:20;;;;;;;47.90;13.90;;;9.60;99.90;;;;;;5114376;28;20207;-55
2022/12/21 08:48:49;;;;;;;62.17;15.70;;;9.70;99.90;;;;;;5114629;28;20230;-57
2022/12/21 08:51:16;;;;;;;193.93;22.07;;;9.70;99.90;;;;;;5114978;28;20215;-55
2022/12/21 08:53:43;;;;;;;148.90;22.20;;;9.40;99.90;;;;;;5114897;28;20260;-59
2022/12/21 08:56:11;;;;;;;362.57;28.93;;;9.30;99.90;;;;;;5114560;28;20199;-56
2022/12/21 08:58:37;;;;;;;183.43;23.23;;;9.30;99.90;;;;;;5114181;28;20582;-51
2022/12/21 09:01:05;;;;;;;151.13;24.20;;;9.20;99.90;;;;;;5113238;28;20267;-54
2022/12/21 09:03:31;;;;;;;178.73;23.43;;;9.30;99.90;;;;;;5114472;28;20237;-53
2022/12/21 09:05:59;;;;;;;303.93;26.87;;;9.30;99.90;;;;;;5114224;28;20319;-59
2022/12/21 09:08:26;;;;;;;116.23;21.27;;;9.10;99.90;;;;;;5113942;28;20659;-61
2022/12/21 09:11:00;;;;;;;100.70;20.27;;;9.20;99.90;;;;;;5113959;28;20206;-55
2022/12/21 09:13:28;;;;;;;155.70;23.13;;;9.30;99.90;;;;;;5113510;28;20286;-55
2022/12/21 09:15:55;;;;;;;192.13;23.67;;;9.30;99.90;;;;;;5092100;28;20608;-57
2022/12/21 09:18:22;;;;;;;81.87;20.80;;;9.40;99.90;;;;;;5093723;28;20600;-60
2022/12/21 09:20:49;;;;;;;109.03;22.20;;;9.40;99.90;;;;;;5093942;28;20215;-57
2022/12/21 09:23:15;;;;;;;152.80;23.73;;;9.50;99.90;;;;;;5094578;28;20208;-60
2022/12/21 09:25:43;;;;;;;129.10;22.03;;;9.50;99.90;;;;;;5101972;28;20324;-57
2022/12/21 09:28:10;;;;;;;107.30;22.13;;;9.50;99.90;;;;;;5114390;28;20313;-60
2022/12/21 09:30:38;;;;;;;176.13;23.50;;;9.50;99.90;;;;;;5114783;28;20569;-57
2022/12/21 09:33:05;;;;;;;156.67;24.13;;;9.40;99.90;;;;;;5114804;28;20603;-59
2022/12/21 09:35:32;;;;;;;157.57;22.57;;;9.40;99.90;;;;;;5114481;28;20210;-57
2022/12/21 09:37:59;;;;;;;137.50;22.17;;;9.40;99.90;;;;;;5114455;27;20258;-59
2022/12/21 09:40:26;;;;;;;165.53;22.10;;;9.50;99.90;;;;;;5114595;27;20234;-56
2022/12/21 09:43:02;;;;;;;224.93;22.87;;;9.50;99.90;;;;;;5114507;28;20208;-59
2022/12/21 09:45:44;;;;;;;337.30;25.33;;;9.50;99.90;;;;;;5114454;28;20208;-58
2022/12/21 09:48:15;;;;;;;237.83;22.03;;;9.40;99.90;;;;;;5114156;28;20235;-59
2022/12/21 09:50:46;;;;;;;127.60;18.83;;;9.50;99.90;;;;;;5114394;28;20302;-59
2022/12/21 09:53:19;;;;;;;158.13;17.47;;;9.50;99.90;;;;;;5114576;28;20204;-59
2022/12/21 09:55:50;;;;;;;139.83;17.17;;;9.50;99.90;;;;;;5114407;28;20253;-57
2022/12/21 09:58:23;;;;;;;144.50;15.90;;;9.50;99.90;;;;;;5106467;28;20307;-59
2022/12/21 10:00:56;;;;;;;87.33;15.80;;;9.40;99.90;;;;;;5114185;28;20204;-57
2022/12/21 10:03:38;;;;;;;124.53;18.60;;;9.30;99.90;;;;;;5113686;28;20203;-52
2022/12/21 10:06:28;;;;;;;42.63;15.00;;;9.10;99.90;;;;;;5113590;27;20579;-59
2022/12/21 10:09:17;;;;;;;40.43;15.90;;;9.10;99.90;;;;;;5105664;27;20946;-58
2022/12/21 10:12:00;;;;;;;45.53;16.60;;;9.10;99.90;;;;;;5113577;28;20203;-56
2022/12/21 10:14:36;;;;;;;41.23;14.30;;;9.00;99.90;;;;;;5113678;28;20215;-57
2022/12/21 10:17:10;;;;;;;43.57;15.40;;;9.00;99.90;;;;;;5113506;27;20206;-49
2022/12/21 10:19:51;;;;;;;34.37;12.77;;;9.00;99.90;;;;;;5113544;28;20631;-57
2022/12/21 10:22:21;;;;;;;37.03;13.60;;;9.00;99.90;;;;;;5113241;28;20551;-56
2022/12/21 10:24:51;;;;;;;36.63;14.50;;;9.00;99.90;;;;;;5112944;28;20298;-56
2022/12/21 10:27:22;;;;;;;35.03;14.07;;;9.00;99.90;;;;;;5113014;28;20211;-52
2022/12/21 10:29:53;;;;;;;33.33;15.13;;;9.00;99.90;;;;;;5113359;28;20211;-59
2022/12/21 10:32:23;;;;;;;32.73;15.13;;;9.00;99.90;;;;;;5113129;28;20739;-52
2022/12/21 10:34:55;;;;;;;40.90;17.10;;;8.90;99.90;;;;;;5108259;28;20677;-62
2022/12/21 10:37:22;;;;;;;35.00;15.17;;;9.00;99.90;;;;;;5109430;28;20250;-56
2022/12/21 10:39:55;;;;;;;30.80;14.40;;;9.00;99.90;;;;;;5112491;28;20214;-55
2022/12/21 10:42:26;;;;;;;28.27;14.17;;;9.00;99.90;;;;;;5112411;28;20202;-55
2022/12/21 10:44:53;;;;;;;36.77;14.47;;;8.90;99.90;;;;;;5112483;28;20240;-58
2022/12/21 10:47:26;;;;;;;38.97;15.03;;;8.90;99.90;;;;;;5111864;28;20641;-57
2022/12/21 10:50:02;;;;;;;38.47;16.83;;;8.90;99.90;;;;;;5112469;28;20214;-63
2022/12/21 10:52:39;;;;;;;40.43;15.90;;;8.90;99.90;;;;;;5112872;28;20633;-63
2022/12/21 10:55:07;;;;;;;36.27;17.70;;;9.00;99.90;;;;;;5111912;28;20404;-64
2022/12/21 10:57:35;;;;;;;36.17;16.57;;;8.90;99.90;;;;;;5111565;28;20355;-64
2022/12/21 11:00:22;;;;;;;37.47;18.60;;;8.90;99.90;;;;;;5112057;28;20900;-60
2022/12/21 11:02:52;;;;;;;46.97;19.93;;;9.00;99.90;;;;;;5112331;28;20211;-62
2022/12/21 11:05:37;;;;;;;44.53;19.83;;;9.10;99.90;;;;;;5112199;28;20214;-65
2022/12/21 11:08:21;;;;;;;42.70;18.37;;;9.20;99.90;;;;;;5111154;28;20276;-64
2022/12/21 11:10:49;;;;;;;41.20;17.93;;;9.30;99.90;;;;;;5112705;28;20267;-64
2022/12/21 11:13:18;;;;;;;40.73;17.47;;;9.40;99.90;;;;;;5112123;28;20283;-63
2022/12/21 11:15:53;;;;;;;44.73;17.23;;;9.30;99.90;;;;;;5111290;28;20214;-64
2022/12/21 11:18:31;;;;;;;32.73;15.93;;;9.30;99.90;;;;;;5111780;28;20634;-64
2022/12/21 11:20:58;;;;;;;33.17;15.60;;;9.10;99.90;;;;;;5112029;28;20661;-64
2022/12/21 11:23:24;;;;;;;35.20;16.40;;;9.00;99.90;;;;;;5111652;28;20233;-63
2022/12/21 11:25:52;;;;;;;41.00;16.97;;;8.90;99.90;;;;;;5111454;28;20622;-53
2022/12/21 11:28:20;;;;;;;32.67;17.27;;;8.90;99.90;;;;;;5111596;28;20227;-57
2022/12/21 11:30:53;;;;;;;39.83;17.70;;;8.80;99.90;;;;;;5111977;28;20549;-60
2022/12/21 11:33:21;;;;;;;39.33;18.07;;;8.80;99.90;;;;;;5111506;28;20207;-61
2022/12/21 11:36:08;;;;;;;38.33;18.50;;;8.90;99.90;;;;;;5111548;28;20225;-56
2022/12/21 11:38:36;;;;;;;36.77;17.00;;;8.90;99.90;;;;;;5111727;28;20634;-59
2022/12/21 11:41:09;;;;;;;39.23;19.00;;;8.90;99.90;;;;;;5111873;28;20207;-61
2022/12/21 11:43:44;;;;;;;41.40;19.20;;;8.90;99.90;;;;;;5111004;28;20218;-55
2022/12/21 11:46:37;;;;;;;34.87;16.57;;;8.90;99.90;;;;;;5111305;28;20205;-54
2022/12/21 11:49:29;;;;;;;31.17;14.83;;;8.80;99.90;;;;;;5111257;28;20727;-57
2022/12/21 11:52:07;;;;;;;30.13;14.23;;;8.80;99.90;;;;;;5111397;28;20215;-56
2022/12/21 11:54:49;;;;;;;27.97;13.93;;;8.80;99.90;;;;;;5111840;28;20260;-57
2022/12/21 11:57:26;;;;;;;28.30;11.97;;;8.70;99.90;;;;;;5103400;28;20222;-55
2022/12/21 12:00:04;;;;;;;28.77;12.30;;;8.70;99.90;;;;;;5111353;28;20207;-58
2022/12/21 12:03:02;;;;;;;23.63;11.20;;;8.70;99.90;;;;;;5111729;28;20652;-62
2022/12/21 12:05:40;;;;;;;21.83;11.23;;;8.80;99.90;;;;;;5111654;28;20272;-61
2022/12/21 12:08:13;;;;;;;20.80;10.80;;;8.70;99.90;;;;;;5111328;28;20704;-58
2022/12/21 12:10:56;;;;;;;23.53;11.13;;;8.60;99.90;;;;;;5111355;28;20210;-62
2022/12/21 12:13:40;;;;;;;24.40;10.20;;;8.60;99.90;;;;;;5112418;28;20207;-56
2022/12/21 12:16:16;;;;;;;27.07;10.37;;;8.60;99.90;;;;;;5111848;28;20210;-57
2022/12/21 12:18:52;;;;;;;25.60;10.43;;;8.60;99.90;;;;;;5111240;28;20708;-55
2022/12/21 12:21:49;;;;;;;24.97;10.33;;;8.60;99.90;;;;;;5108864;28;20568;-54
2022/12/21 12:24:35;;;;;;;23.10;10.70;;;8.60;99.90;;;;;;5103535;28;20324;-56
2022/12/21 12:27:15;;;;;;;19.30;9.43;;;8.60;99.90;;;;;;5111604;28;20260;-60
2022/12/21 12:30:04;;;;;;;24.50;8.60;;;8.70;99.90;;;;;;5111775;28;20872;-51
2022/12/21 12:32:51;;;;;;;20.00;8.70;;;8.70;99.90;;;;;;5111324;28;20677;-52
2022/12/21 12:35:35;;;;;;;19.53;8.27;;;8.70;99.90;;;;;;5112338;28;20206;-61
2022/12/21 12:38:13;;;;;;;16.40;8.03;;;8.80;99.90;;;;;;5114775;28;20226;-51
2022/12/21 12:40:52;;;;;;;20.70;8.03;;;8.70;99.90;;;;;;5114879;28;20627;-60
2022/12/21 12:43:26;;;;;;;21.83;8.03;;;8.70;99.90;;;;;;5114903;28;20256;-57
2022/12/21 12:46:03;;;;;;;21.37;7.33;;;8.70;99.90;;;;;;5114310;28;20208;-59
2022/12/21 12:48:39;;;;;;;19.27;7.23;;;8.70;99.90;;;;;;5114555;28;20288;-59
2022/12/21 12:51:15;;;;;;;12.63;6.90;;;8.60;99.90;;;;;;5114998;28;20251;-61
2022/12/21 12:53:50;;;;;;;14.93;7.70;;;8.60;99.90;;;;;;5114847;28;20298;-54
2022/12/21 12:56:24;;;;;;;19.30;7.47;;;8.60;99.90;;;;;;5114225;28;20646;-56
2022/12/21 12:59:00;;;;;;;15.63;7.60;;;8.60;99.90;;;;;;5114555;28;20229;-56
2022/12/21 13:01:33;;;;;;;15.17;7.63;;;8.60;99.90;;;;;;5114593;28;20210;-51
2022/12/21 13:04:37;;;;;;;17.93;7.70;;;8.60;99.90;;;;;;5114548;28;20202;-53
2022/12/21 13:07:16;;;;;;;21.93;7.83;;;8.60;99.90;;;;;;5113702;28;20216;-54